createdAt,value
2022-10-05T00:01:33.249Z,3.15
2022-10-05T00:04:15.621Z,3.47
2022-10-05T00:06:46.682Z,3.45
2022-10-05T00:09:19.224Z,3.55
2022-10-05T00:11:49.967Z,3.47
2022-10-05T00:14:23.399Z,3.58
2022-10-05T00:16:53.032Z,3.88
2022-10-05T00:19:28.417Z,3.20
2022-10-05T00:22:00.324Z,4.05
2022-10-05T00:24:31.073Z,3.58
2022-10-05T00:27:02.982Z,3.28
2022-10-05T00:29:35.518Z,2.92
2022-10-05T00:32:04.894Z,3.45
2022-10-05T00:34:35.514Z,3.70
2022-10-05T00:37:05.748Z,3.60
2022-10-05T00:39:37.238Z,4.68
2022-10-05T00:42:30.680Z,4.03
2022-10-05T00:45:08.184Z,4.50
2022-10-05T00:47:48.690Z,5.57
2022-10-05T00:50:50.132Z,4.18
2022-10-05T00:53:31.322Z,4.45
2022-10-05T00:56:06.632Z,5.05
2022-10-05T00:58:48.667Z,4.68
2022-10-05T01:01:24.607Z,4.90
2022-10-05T01:04:10.504Z,5.50
2022-10-05T01:06:51.206Z,5.40
2022-10-05T01:09:31.479Z,4.57
2022-10-05T01:12:08.825Z,4.47
2022-10-05T01:14:46.557Z,5.00
2022-10-05T01:17:23.962Z,4.53
2022-10-05T01:20:16.858Z,4.30
2022-10-05T01:23:08.750Z,5.35
2022-10-05T01:25:45.938Z,4.93
2022-10-05T01:28:22.750Z,4.63
2022-10-05T01:31:00.378Z,5.13
2022-10-05T01:33:35.259Z,5.45
2022-10-05T01:36:14.282Z,4.57
2022-10-05T01:38:52.556Z,4.15
2022-10-05T01:41:34.698Z,4.40
2022-10-05T01:44:12.421Z,4.68
2022-10-05T01:46:46.452Z,4.10
2022-10-05T01:49:33.758Z,4.05
2022-10-05T01:52:14.294Z,4.47
2022-10-05T01:54:56.531Z,3.97
2022-10-05T01:57:38.595Z,4.80
2022-10-05T02:00:12.560Z,4.13
2022-10-05T02:02:49.510Z,4.03
2022-10-05T02:05:22.959Z,4.35
2022-10-05T02:07:56.980Z,4.65
2022-10-05T02:10:32.429Z,5.18
2022-10-05T02:13:07.928Z,4.22
2022-10-05T02:15:43.522Z,4.30
2022-10-05T02:18:20.959Z,4.32
2022-10-05T02:20:54.104Z,4.32
2022-10-05T02:23:28.271Z,4.80
2022-10-05T02:25:59.565Z,4.55
2022-10-05T02:28:34.673Z,4.97
2022-10-05T02:36:22.067Z,5.43
2022-10-05T02:39:02.780Z,7.90
2022-10-05T02:41:44.064Z,8.90
2022-10-05T02:44:25.277Z,7.28
2022-10-05T02:47:01.974Z,6.45
2022-10-05T02:49:42.526Z,5.50
2022-10-05T02:52:20.109Z,4.90
2022-10-05T02:55:00.758Z,5.63
2022-10-05T02:57:35.407Z,5.00
2022-10-05T03:00:15.154Z,4.60
2022-10-05T03:02:50.998Z,5.30
2022-10-05T03:05:25.052Z,4.55
2022-10-05T03:08:02.359Z,4.07
2022-10-05T03:10:40.862Z,4.82
2022-10-05T03:13:15.803Z,5.18
2022-10-05T03:16:13.946Z,4.28
2022-10-05T03:18:56.643Z,4.20
2022-10-05T03:21:37.844Z,4.30
2022-10-05T03:24:22.454Z,4.47
2022-10-05T03:27:02.227Z,4.45
2022-10-05T03:29:41.831Z,5.20
2022-10-05T03:32:22.863Z,5.22
2022-10-05T03:34:58.459Z,4.45
2022-10-05T03:37:36.086Z,5.18
2022-10-05T03:40:14.810Z,4.80
2022-10-05T03:42:57.259Z,4.75
2022-10-05T03:45:32.036Z,4.38
2022-10-05T03:48:08.720Z,4.72
2022-10-05T03:50:47.109Z,4.85
2022-10-05T03:53:20.993Z,6.00
2022-10-05T03:55:59.619Z,5.22
2022-10-05T03:58:35.753Z,6.63
2022-10-05T04:01:11.508Z,6.43
2022-10-05T04:03:46.371Z,6.68
2022-10-05T04:06:22.302Z,4.88
2022-10-05T04:08:57.726Z,5.25
2022-10-05T04:11:34.766Z,5.22
2022-10-05T04:14:08.423Z,4.90
2022-10-05T04:16:43.187Z,5.68
2022-10-05T04:19:20.328Z,4.72
2022-10-05T04:21:53.360Z,4.72
2022-10-05T04:24:31.868Z,4.93
2022-10-05T04:27:07.978Z,4.90
2022-10-05T04:29:42.600Z,5.20
2022-10-05T04:32:31.499Z,5.80
2022-10-05T04:35:31.152Z,4.18
2022-10-05T04:38:11.295Z,4.75
2022-10-05T04:40:56.015Z,5.05
2022-10-05T04:43:37.672Z,5.60
2022-10-05T04:46:22.651Z,6.30
2022-10-05T04:49:10.471Z,9.23
2022-10-05T04:51:51.177Z,8.95
2022-10-05T04:54:31.877Z,6.40
2022-10-05T04:57:06.767Z,7.47
2022-10-05T05:00:01.908Z,6.35
2022-10-05T05:02:52.995Z,6.60
2022-10-05T05:05:34.438Z,7.10
2022-10-05T05:08:18.307Z,6.50
2022-10-05T05:11:15.825Z,5.57
2022-10-05T05:14:05.846Z,5.63
2022-10-05T05:16:41.070Z,6.13
2022-10-05T05:19:34.890Z,6.75
2022-10-05T05:22:09.020Z,5.53
2022-10-05T05:24:50.102Z,6.25
2022-10-05T05:27:37.564Z,5.68
2022-10-05T05:30:29.156Z,6.10
2022-10-05T05:33:18.732Z,5.50
2022-10-05T05:36:22.840Z,5.47
2022-10-05T05:39:05.252Z,5.30
2022-10-05T05:41:40.530Z,6.65
2022-10-05T05:50:56.667Z,6.88
2022-10-05T05:53:32.096Z,6.20
2022-10-05T05:56:08.027Z,5.53
2022-10-05T05:58:45.955Z,5.95
2022-10-05T06:01:32.808Z,5.03
2022-10-05T06:04:15.687Z,5.55
2022-10-05T06:06:50.192Z,6.28
2022-10-05T06:09:25.783Z,5.70
2022-10-05T06:12:28.617Z,6.72
2022-10-05T06:15:01.802Z,6.57
2022-10-05T06:17:39.133Z,5.80
2022-10-05T06:20:26.872Z,5.30
2022-10-05T06:23:03.303Z,5.70
2022-10-05T06:25:45.747Z,5.47
2022-10-05T06:28:16.615Z,6.35
2022-10-05T06:31:00.173Z,6.20
2022-10-05T06:33:47.833Z,5.32
2022-10-05T06:36:42.170Z,6.47
2022-10-05T06:39:48.728Z,5.50
2022-10-05T06:45:24.631Z,5.55
2022-10-05T06:48:12.660Z,5.50
2022-10-05T06:51:06.117Z,5.25
2022-10-05T06:53:57.779Z,5.20
2022-10-05T06:56:37.595Z,4.90
2022-10-05T06:59:17.791Z,6.22
2022-10-05T07:01:58.106Z,5.45
2022-10-05T07:04:47.250Z,5.47
2022-10-05T07:07:24.442Z,5.03
2022-10-05T07:10:12.250Z,5.35
2022-10-05T07:13:00.168Z,5.57
2022-10-05T07:15:55.975Z,5.45
2022-10-05T07:18:42.074Z,5.20
2022-10-05T07:21:20.380Z,4.93
2022-10-05T07:24:03.684Z,5.30
2022-10-05T07:26:38.775Z,5.47
2022-10-05T07:29:36.221Z,5.30
2022-10-05T07:32:17.042Z,6.40
2022-10-05T07:34:55.980Z,5.82
2022-10-05T07:37:52.105Z,5.78
2022-10-05T07:40:27.407Z,5.68
2022-10-05T07:43:07.654Z,5.85
2022-10-05T07:45:47.653Z,5.60
2022-10-05T07:48:22.124Z,5.53
2022-10-05T07:51:00.572Z,6.40
2022-10-05T07:53:36.921Z,5.60
2022-10-05T07:56:15.094Z,6.38
2022-10-05T07:58:49.524Z,6.13
2022-10-05T08:01:26.014Z,4.72
2022-10-05T08:04:06.250Z,5.30
2022-10-05T08:06:45.413Z,5.53
2022-10-05T08:09:28.610Z,5.10
2022-10-05T08:12:05.044Z,5.93
2022-10-05T08:14:41.517Z,5.97
2022-10-05T08:17:25.658Z,5.95
2022-10-05T08:20:07.739Z,5.47
2022-10-05T08:22:47.461Z,5.43
2022-10-05T08:25:25.806Z,5.43
2022-10-05T08:28:04.508Z,5.47
2022-10-05T08:30:51.950Z,5.13
2022-10-05T08:33:24.971Z,5.18
2022-10-05T08:36:04.619Z,4.93
2022-10-05T08:38:36.211Z,5.10
2022-10-05T08:41:34.171Z,4.45
2022-10-05T08:44:32.681Z,4.80
2022-10-05T08:47:19.674Z,5.30
2022-10-05T08:50:16.029Z,4.80
2022-10-05T08:53:16.858Z,4.85
2022-10-05T08:56:03.634Z,5.28
2022-10-05T08:59:02.604Z,5.68
2022-10-05T09:01:47.554Z,4.85
2022-10-05T09:04:30.136Z,5.78
2022-10-05T09:07:14.574Z,5.60
2022-10-05T09:10:32.683Z,4.25
2022-10-05T09:13:24.515Z,4.47
2022-10-05T09:16:26.859Z,5.05
2022-10-05T09:19:11.301Z,5.32
2022-10-05T09:21:43.654Z,4.55
2022-10-05T09:24:28.483Z,5.25
2022-10-05T09:27:08.958Z,4.93
2022-10-05T09:30:27.190Z,5.43
2022-10-05T09:33:35.244Z,4.43
2022-10-05T09:36:32.552Z,5.25
2022-10-05T09:39:30.938Z,4.70
2022-10-05T09:42:37.530Z,4.75
2022-10-05T09:45:44.409Z,5.10
2022-10-05T09:48:58.066Z,4.38
2022-10-05T09:52:03.779Z,4.60
2022-10-05T09:55:17.631Z,6.00
2022-10-05T09:58:30.484Z,4.85
2022-10-05T10:01:29.242Z,5.18
2022-10-05T10:04:34.175Z,4.60
2022-10-05T10:07:37.891Z,5.35
2022-10-05T10:10:39.354Z,5.00
2022-10-05T10:13:34.773Z,5.10
2022-10-05T10:16:20.302Z,4.13
2022-10-05T10:19:20.668Z,5.20
2022-10-05T10:22:25.695Z,5.13
2022-10-05T10:25:25.715Z,4.25
2022-10-05T10:28:20.007Z,4.65
2022-10-05T10:31:12.491Z,5.32
2022-10-05T10:34:09.342Z,5.32
2022-10-05T10:36:59.720Z,4.88
2022-10-05T10:39:45.272Z,4.72
2022-10-05T10:42:36.820Z,6.13
2022-10-05T10:45:28.699Z,4.97
2022-10-05T10:48:11.014Z,4.90
2022-10-05T10:51:19.350Z,5.40
2022-10-05T10:54:26.115Z,4.93
2022-10-05T10:57:04.115Z,4.45
2022-10-05T11:00:15.733Z,4.80
2022-10-05T11:03:13.520Z,5.13
2022-10-05T11:06:17.437Z,4.88
2022-10-05T11:09:37.924Z,4.50
2022-10-05T11:12:51.986Z,4.50
2022-10-05T11:16:02.276Z,4.45
2022-10-05T11:18:53.735Z,4.80
2022-10-05T11:21:30.595Z,6.53
2022-10-05T11:24:38.922Z,4.80
2022-10-05T11:27:23.983Z,5.00
2022-10-05T11:30:23.077Z,4.28
2022-10-05T11:33:23.138Z,4.60
2022-10-05T11:36:26.738Z,4.57
2022-10-05T11:39:37.108Z,4.80
2022-10-05T11:42:41.428Z,4.75
2022-10-05T11:45:36.440Z,5.22
2022-10-05T11:48:36.099Z,4.47
2022-10-05T11:51:48.821Z,5.43
2022-10-05T11:54:38.266Z,5.03
2022-10-05T11:57:21.220Z,5.65
2022-10-05T11:59:57.935Z,5.97
2022-10-05T12:02:45.070Z,5.05
2022-10-05T12:05:21.421Z,4.88
2022-10-05T12:10:36.030Z,4.53
2022-10-05T12:13:26.041Z,4.03
2022-10-05T12:15:59.999Z,4.53
2022-10-05T12:18:57.631Z,4.43
2022-10-05T12:21:38.112Z,4.50
2022-10-05T12:24:21.230Z,6.03
2022-10-05T12:27:00.086Z,7.32
2022-10-05T12:29:38.430Z,6.25
2022-10-05T12:32:17.196Z,5.43
2022-10-05T12:35:01.810Z,4.60
2022-10-05T12:40:29.498Z,5.90
2022-10-05T12:43:06.251Z,4.95
2022-10-05T12:45:53.013Z,4.72
2022-10-05T12:48:39.523Z,3.80
2022-10-05T12:51:16.701Z,4.65
2022-10-05T12:53:56.818Z,3.80
2022-10-05T12:56:40.805Z,4.07
2022-10-05T12:59:20.678Z,4.40
2022-10-05T13:01:57.096Z,4.03
2022-10-05T13:04:40.948Z,3.72
2022-10-05T13:07:42.331Z,4.38
2022-10-05T13:10:28.324Z,4.20
2022-10-05T13:13:20.850Z,4.10
2022-10-05T13:15:55.903Z,4.57
2022-10-05T13:18:37.284Z,3.90
2022-10-05T13:21:13.062Z,4.00
2022-10-05T13:23:57.130Z,4.10
2022-10-05T13:26:33.654Z,5.18
2022-10-05T13:29:14.469Z,4.35
2022-10-05T13:31:49.482Z,4.68
2022-10-05T13:34:27.604Z,4.30
2022-10-05T13:37:07.192Z,4.38
2022-10-05T13:39:55.434Z,3.63
2022-10-05T13:42:34.479Z,3.70
2022-10-05T13:45:15.121Z,3.92
2022-10-05T13:47:53.908Z,4.20
2022-10-05T13:50:29.802Z,3.75
2022-10-05T13:53:12.309Z,3.92
2022-10-05T13:55:48.031Z,3.28
2022-10-05T13:58:26.431Z,4.15
2022-10-05T14:01:01.712Z,4.53
2022-10-05T14:03:35.098Z,3.97
2022-10-05T14:06:11.789Z,4.07
2022-10-05T14:08:52.193Z,3.72
2022-10-05T14:11:31.438Z,3.85
2022-10-05T14:14:15.882Z,4.30
2022-10-05T14:16:55.338Z,4.40
2022-10-05T14:19:28.648Z,3.83
2022-10-05T14:22:03.647Z,4.18
2022-10-05T14:24:44.794Z,3.58
2022-10-05T14:27:22.784Z,4.32
2022-10-05T14:29:59.880Z,4.10
2022-10-05T14:32:33.819Z,4.30
2022-10-05T14:35:15.919Z,3.90
2022-10-05T14:37:51.875Z,4.53
2022-10-05T14:40:27.525Z,5.13
2022-10-05T14:42:57.874Z,4.38
2022-10-05T14:45:30.269Z,5.22
2022-10-05T14:48:12.942Z,5.25
2022-10-05T14:51:02.267Z,6.40
2022-10-05T14:53:41.878Z,4.72
2022-10-05T14:56:42.579Z,6.07
2022-10-05T14:59:30.485Z,5.65
2022-10-05T15:02:23.303Z,5.47
2022-10-05T15:05:02.198Z,5.35
2022-10-05T15:07:39.161Z,5.00
2022-10-05T15:10:33.987Z,5.25
2022-10-05T15:13:17.019Z,5.20
2022-10-05T15:15:54.011Z,4.65
2022-10-05T15:18:34.814Z,5.00
2022-10-05T15:21:26.605Z,5.45
2022-10-05T15:23:58.674Z,5.82
2022-10-05T15:26:43.752Z,5.07
2022-10-05T15:29:27.657Z,5.57
2022-10-05T15:32:03.306Z,6.47
2022-10-05T15:34:40.479Z,5.40
2022-10-05T15:37:21.152Z,5.25
2022-10-05T15:39:54.071Z,4.93
2022-10-05T15:42:32.031Z,6.03
2022-10-05T15:45:09.085Z,6.07
2022-10-05T15:47:52.133Z,5.63
2022-10-05T15:50:27.074Z,5.50
2022-10-05T15:53:08.514Z,5.35
2022-10-05T15:55:48.390Z,6.63
2022-10-05T15:58:48.072Z,6.65
2022-10-05T16:01:21.539Z,6.10
2022-10-05T16:03:55.625Z,6.40
2022-10-05T16:06:52.631Z,5.22
2022-10-05T16:09:47.288Z,5.93
2022-10-05T16:12:26.277Z,6.25
2022-10-05T16:15:17.093Z,6.40
2022-10-05T16:18:09.279Z,6.03
2022-10-05T16:20:50.170Z,5.63
2022-10-05T16:23:34.507Z,6.10
2022-10-05T16:26:24.039Z,7.00
2022-10-05T16:29:03.781Z,7.10
2022-10-05T16:31:43.966Z,6.90
2022-10-05T16:34:25.528Z,6.63
2022-10-05T16:37:04.602Z,6.43
2022-10-05T16:39:56.139Z,6.00
2022-10-05T16:42:47.330Z,6.70
2022-10-05T16:45:45.118Z,6.18
2022-10-05T16:48:23.872Z,6.30
2022-10-05T16:51:09.833Z,9.35
2022-10-05T16:53:42.717Z,7.80
2022-10-05T16:56:15.898Z,8.40
2022-10-05T16:59:00.957Z,7.25
2022-10-05T17:01:42.560Z,7.13
2022-10-05T17:04:25.198Z,8.10
2022-10-05T17:07:17.248Z,7.43
2022-10-05T17:10:29.621Z,7.93
2022-10-05T17:13:07.398Z,8.52
2022-10-05T17:15:55.503Z,9.85
2022-10-05T17:18:51.820Z,8.73
2022-10-05T17:21:35.012Z,7.82
2022-10-05T17:24:21.467Z,9.18
2022-10-05T17:27:07.395Z,9.10
2022-10-05T17:29:49.901Z,9.02
2022-10-05T17:32:57.873Z,9.02
2022-10-05T17:35:52.056Z,8.77
2022-10-05T17:38:23.873Z,8.13
2022-10-05T17:41:26.164Z,9.10
2022-10-05T17:44:19.472Z,9.45
2022-10-05T17:46:51.122Z,9.38
2022-10-05T17:49:47.847Z,8.82
2022-10-05T17:55:48.876Z,8.98
2022-10-05T17:59:01.003Z,8.18
2022-10-05T18:01:32.966Z,9.25
2022-10-05T18:04:32.883Z,9.75
2022-10-05T18:07:19.115Z,9.90
2022-10-05T18:10:14.463Z,9.77
2022-10-05T18:12:51.893Z,9.80
2022-10-05T18:15:46.387Z,11.87
2022-10-05T18:18:56.078Z,11.65
2022-10-05T18:21:29.876Z,13.15
2022-10-05T18:24:31.477Z,11.88
2022-10-05T18:27:28.587Z,10.77
2022-10-05T18:30:15.710Z,11.23
2022-10-05T18:33:17.582Z,12.88
2022-10-05T18:35:58.337Z,12.10
2022-10-05T18:38:53.131Z,15.30
2022-10-05T18:41:33.548Z,13.20
2022-10-05T18:44:20.248Z,14.38
2022-10-05T18:46:58.483Z,13.40
2022-10-05T18:49:44.459Z,14.70
2022-10-05T18:52:22.973Z,77.78
2022-10-05T18:55:03.877Z,18.48
2022-10-05T18:58:14.340Z,20.52
2022-10-05T19:01:06.664Z,15.60
2022-10-05T19:03:46.451Z,26.63
2022-10-05T19:06:25.626Z,16.20
2022-10-05T19:09:06.739Z,15.38
2022-10-05T19:11:46.097Z,14.60
2022-10-05T19:14:24.966Z,79.53
2022-10-05T19:17:06.371Z,71.70
2022-10-05T19:19:46.185Z,41.03
2022-10-05T19:22:28.276Z,42.03
2022-10-05T19:25:17.865Z,33.83
2022-10-05T19:27:58.567Z,72.85
2022-10-05T19:30:36.217Z,37.10
2022-10-05T19:33:29.593Z,43.90
2022-10-05T19:36:14.862Z,27.58
2022-10-05T19:38:55.542Z,26.33
2022-10-05T19:41:36.898Z,25.52
2022-10-05T19:44:20.948Z,23.38
2022-10-05T19:46:59.862Z,23.70
2022-10-05T19:49:38.649Z,21.48
2022-10-05T19:52:21.238Z,20.48
2022-10-05T19:55:04.752Z,18.10
